createdAt,value
2022-12-04T00:01:25.777Z,27.67
2022-12-04T00:06:20.416Z,30.30
2022-12-04T00:11:14.596Z,27.83
2022-12-04T00:16:10.877Z,28.57
2022-12-04T00:21:07.968Z,27.07
2022-12-04T00:26:01.531Z,28.80
2022-12-04T00:30:54.692Z,28.83
2022-12-04T00:35:46.684Z,28.73
2022-12-04T00:40:38.699Z,31.03
2022-12-04T00:45:30.819Z,30.90
2022-12-04T00:50:22.914Z,31.87
2022-12-04T00:55:16.212Z,30.60
2022-12-04T01:00:08.824Z,30.40
2022-12-04T01:05:02.245Z,31.97
2022-12-04T01:09:54.494Z,32.93
2022-12-04T01:14:46.631Z,31.50
2022-12-04T01:19:38.583Z,33.27
2022-12-04T01:24:30.650Z,32.00
2022-12-04T01:29:22.736Z,34.23
2022-12-04T01:34:14.703Z,34.27
2022-12-04T01:39:06.820Z,32.93
2022-12-04T01:44:17.674Z,35.87
2022-12-04T01:49:17.808Z,33.67
2022-12-04T01:54:17.206Z,35.53
2022-12-04T01:59:12.775Z,35.93
2022-12-04T02:04:04.999Z,35.93
2022-12-04T02:10:21.067Z,37.37
2022-12-04T02:15:35.745Z,37.80
2022-12-04T02:20:47.670Z,37.20
2022-12-04T02:26:09.908Z,38.07
2022-12-04T02:31:04.928Z,37.37
2022-12-04T02:36:22.903Z,39.33
2022-12-04T02:41:25.760Z,37.77
2022-12-04T02:46:22.284Z,37.00
2022-12-04T02:51:17.449Z,38.40
2022-12-04T02:56:14.252Z,39.30
2022-12-04T03:01:21.740Z,34.80
2022-12-04T03:06:15.411Z,37.00
2022-12-04T03:11:07.386Z,38.87
2022-12-04T03:16:15.756Z,37.50
2022-12-04T03:21:23.627Z,35.50
2022-12-04T03:26:31.710Z,38.47
2022-12-04T03:31:45.202Z,37.07
2022-12-04T03:36:47.578Z,39.03
2022-12-04T03:41:51.302Z,37.80
2022-12-04T03:47:08.560Z,36.73
2022-12-04T03:52:17.092Z,36.80
2022-12-04T03:57:14.959Z,37.50
2022-12-04T04:02:12.116Z,39.33
2022-12-04T04:07:15.975Z,38.80
2022-12-04T04:12:20.921Z,38.50
2022-12-04T04:17:38.197Z,37.87
2022-12-04T04:22:55.736Z,39.63
2022-12-04T04:27:55.917Z,39.90
2022-12-04T04:33:17.859Z,40.37
2022-12-04T04:38:12.577Z,39.20
2022-12-04T04:43:24.912Z,38.37
2022-12-04T04:48:22.972Z,39.57
2022-12-04T04:53:22.068Z,37.60
2022-12-04T04:58:17.001Z,38.90
2022-12-04T05:03:09.959Z,38.07
2022-12-04T05:08:02.206Z,37.60
2022-12-04T05:12:54.253Z,36.80
2022-12-04T05:17:46.224Z,38.47
2022-12-04T05:22:38.566Z,39.20
2022-12-04T05:27:31.721Z,38.47
2022-12-04T05:32:25.897Z,37.07
2022-12-04T05:37:17.947Z,38.20
2022-12-04T05:42:10.230Z,38.90
2022-12-04T05:47:02.546Z,38.03
2022-12-04T05:51:55.981Z,39.73
2022-12-04T05:56:48.341Z,39.50
2022-12-04T06:01:40.872Z,38.20
2022-12-04T06:06:33.118Z,40.23
2022-12-04T06:11:32.446Z,42.20
2022-12-04T06:16:31.605Z,39.93
2022-12-04T06:21:26.605Z,38.87
2022-12-04T06:26:19.312Z,39.83
2022-12-04T06:31:13.431Z,40.00
2022-12-04T06:36:12.331Z,40.10
2022-12-04T06:41:07.707Z,39.37
2022-12-04T06:46:05.783Z,39.47
2022-12-04T06:51:06.673Z,40.33
2022-12-04T06:56:00.720Z,39.10
2022-12-04T07:00:53.579Z,39.13
2022-12-04T07:05:46.797Z,40.90
2022-12-04T07:10:39.148Z,40.40
2022-12-04T07:15:33.903Z,40.07
2022-12-04T07:20:25.940Z,41.30
2022-12-04T07:25:18.564Z,39.50
2022-12-04T07:30:15.684Z,38.20
2022-12-04T07:35:08.430Z,66.37
2022-12-04T07:40:01.777Z,40.73
2022-12-04T07:44:54.927Z,40.30
2022-12-04T07:49:46.920Z,40.67
2022-12-04T07:54:38.904Z,113.03
2022-12-04T07:59:30.961Z,43.93
2022-12-04T08:04:22.945Z,40.10
2022-12-04T08:09:14.967Z,37.57
2022-12-04T08:14:08.830Z,37.10
2022-12-04T08:19:01.295Z,41.57
2022-12-04T08:23:55.039Z,40.47
2022-12-04T08:28:47.499Z,39.50
2022-12-04T08:33:40.280Z,40.10
2022-12-04T08:38:32.371Z,36.73
2022-12-04T08:43:24.319Z,40.60
2022-12-04T08:48:16.314Z,39.00
2022-12-04T08:53:08.576Z,40.37
2022-12-04T08:58:00.547Z,42.07
2022-12-04T09:02:52.548Z,39.50
2022-12-04T09:07:44.608Z,39.50
2022-12-04T09:12:36.622Z,40.97
2022-12-04T09:17:28.623Z,40.83
2022-12-04T09:22:20.623Z,39.83
2022-12-04T09:27:14.908Z,42.90
2022-12-04T09:32:07.242Z,41.97
2022-12-04T09:36:59.180Z,39.20
2022-12-04T09:42:08.647Z,39.10
2022-12-04T09:47:05.328Z,38.07
2022-12-04T09:52:01.387Z,36.97
2022-12-04T09:57:03.499Z,35.83
2022-12-04T10:02:26.701Z,32.53
2022-12-04T10:07:33.773Z,33.27
2022-12-04T10:12:47.172Z,33.80
2022-12-04T10:17:58.831Z,35.00
2022-12-04T10:23:13.576Z,33.67
2022-12-04T10:28:25.164Z,37.20
2022-12-04T10:33:26.082Z,35.23
2022-12-04T10:38:31.737Z,36.17
2022-12-04T10:43:40.864Z,35.73
2022-12-04T10:48:38.185Z,35.40
2022-12-04T10:53:32.869Z,38.20
2022-12-04T10:58:27.222Z,37.87
2022-12-04T11:03:28.379Z,39.63
2022-12-04T11:08:27.056Z,38.27
2022-12-04T11:13:20.552Z,39.20
2022-12-04T11:18:34.339Z,38.43
2022-12-04T11:23:29.505Z,37.77
2022-12-04T11:33:46.227Z,34.27
2022-12-04T11:38:38.222Z,32.67
2022-12-04T11:43:33.648Z,34.27
2022-12-04T11:48:26.260Z,33.63
2022-12-04T11:53:40.196Z,34.03
2022-12-04T11:58:32.218Z,34.63
2022-12-04T12:03:34.444Z,34.90
2022-12-04T12:08:53.534Z,34.90
2022-12-04T12:14:05.039Z,36.90
2022-12-04T12:19:24.625Z,35.70
2022-12-04T12:24:29.986Z,36.43
2022-12-04T12:29:42.871Z,37.83
2022-12-04T12:34:34.869Z,37.03
2022-12-04T12:39:56.279Z,49.40
2022-12-04T12:45:20.810Z,35.43
2022-12-04T12:50:28.562Z,37.00
2022-12-04T12:55:28.547Z,38.53
2022-12-04T13:00:25.429Z,36.87
2022-12-04T13:05:24.437Z,36.63
2022-12-04T13:10:32.045Z,37.13
2022-12-04T13:15:34.886Z,37.73
2022-12-04T13:20:31.695Z,39.40
2022-12-04T13:25:38.350Z,37.20
2022-12-04T13:31:15.504Z,36.37
2022-12-04T13:36:28.793Z,37.63
2022-12-04T13:41:23.024Z,37.77
2022-12-04T13:46:38.564Z,36.57
2022-12-04T13:51:38.985Z,36.67
2022-12-04T13:56:31.893Z,38.53
2022-12-04T14:01:28.656Z,38.40
2022-12-04T14:06:34.188Z,39.37
2022-12-04T14:11:27.900Z,41.30
2022-12-04T14:16:29.660Z,42.30
2022-12-04T14:21:22.338Z,40.63
2022-12-04T14:26:20.627Z,41.93
2022-12-04T14:31:12.632Z,40.37
2022-12-04T14:36:10.485Z,42.23
2022-12-04T14:41:03.358Z,40.17
2022-12-04T14:46:22.379Z,40.77
2022-12-04T14:51:35.956Z,39.40
2022-12-04T14:56:52.264Z,43.50
2022-12-04T15:01:47.244Z,45.77
2022-12-04T15:06:39.795Z,45.20
2022-12-04T15:11:50.378Z,48.00
2022-12-04T15:16:43.447Z,45.17
2022-12-04T15:21:39.800Z,46.60
2022-12-04T15:26:31.827Z,43.77
2022-12-04T15:31:30.255Z,44.10
2022-12-04T15:36:42.155Z,44.30
2022-12-04T15:41:36.816Z,43.63
2022-12-04T15:46:35.317Z,41.60
2022-12-04T15:51:28.620Z,44.97
2022-12-04T15:56:21.953Z,43.30
2022-12-04T16:01:15.841Z,43.97
2022-12-04T16:06:18.664Z,43.90
2022-12-04T16:11:22.357Z,61.97
2022-12-04T16:16:20.884Z,43.03
2022-12-04T16:21:19.106Z,41.77
2022-12-04T16:26:15.934Z,40.57
2022-12-04T16:31:12.099Z,43.40
2022-12-04T16:36:07.121Z,42.67
2022-12-04T16:40:59.203Z,40.93
2022-12-04T16:46:00.657Z,43.50
2022-12-04T16:50:52.639Z,39.43
2022-12-04T16:55:47.574Z,39.03
2022-12-04T17:00:43.447Z,34.60
2022-12-04T17:05:35.896Z,37.33
2022-12-04T17:10:29.492Z,38.83
2022-12-04T17:15:21.879Z,41.23
2022-12-04T17:20:16.450Z,37.53
2022-12-04T17:25:10.028Z,38.13
2022-12-04T17:30:02.220Z,41.83
2022-12-04T17:34:55.628Z,39.87
2022-12-04T17:39:48.049Z,37.37
2022-12-04T17:44:39.985Z,37.90
2022-12-04T17:49:32.077Z,38.93
2022-12-04T17:54:24.132Z,40.60
2022-12-04T17:59:16.210Z,39.63
2022-12-04T18:04:09.204Z,39.03
2022-12-04T18:09:01.780Z,40.10
2022-12-04T18:13:56.567Z,39.57
2022-12-04T18:18:48.535Z,36.20
2022-12-04T18:23:47.728Z,37.17
2022-12-04T18:28:39.916Z,34.50
2022-12-04T18:33:36.478Z,32.37
2022-12-04T18:38:30.706Z,32.57
2022-12-04T18:43:22.889Z,37.43
2022-12-04T18:48:15.535Z,39.13
2022-12-04T18:53:07.936Z,39.80
2022-12-04T18:57:59.910Z,40.17
2022-12-04T19:02:51.966Z,38.20
2022-12-04T19:07:44.086Z,35.27
2022-12-04T19:12:36.181Z,34.93
2022-12-04T19:17:28.346Z,30.83
2022-12-04T19:22:21.571Z,29.33
2022-12-04T19:27:14.042Z,30.20
2022-12-04T19:32:06.618Z,27.80
2022-12-04T19:36:58.818Z,27.37
2022-12-04T19:41:50.956Z,27.30
2022-12-04T19:46:42.994Z,27.40
2022-12-04T19:51:38.547Z,25.90
2022-12-04T19:56:32.708Z,25.47
2022-12-04T20:01:30.419Z,25.57
2022-12-04T20:06:25.345Z,26.93
2022-12-04T20:11:19.436Z,24.27
2022-12-04T20:16:14.426Z,27.40
2022-12-04T20:21:11.294Z,26.27
2022-12-04T20:26:05.673Z,25.73
2022-12-04T20:30:58.054Z,25.53
2022-12-04T20:35:50.380Z,24.43
2022-12-04T20:40:42.346Z,23.80
2022-12-04T20:45:35.087Z,22.73
2022-12-04T20:50:27.069Z,21.10
2022-12-04T20:55:19.082Z,21.43
2022-12-04T21:00:11.597Z,19.23
2022-12-04T21:05:03.575Z,20.60
2022-12-04T21:09:55.865Z,18.07
2022-12-04T21:15:06.699Z,18.10
2022-12-04T21:20:01.556Z,18.43
2022-12-04T21:24:58.993Z,19.87
2022-12-04T21:29:51.043Z,18.17
2022-12-04T21:34:43.034Z,17.13
2022-12-04T21:39:35.973Z,17.33
2022-12-04T21:44:27.963Z,18.73
2022-12-04T21:49:20.435Z,18.67
2022-12-04T21:54:12.439Z,17.30
2022-12-04T21:59:05.889Z,15.73
2022-12-04T22:04:01.450Z,16.37
2022-12-04T22:08:53.688Z,15.70
2022-12-04T22:13:45.916Z,13.63
2022-12-04T22:18:38.497Z,11.57
2022-12-04T22:23:30.534Z,10.13
2022-12-04T22:28:22.601Z,10.13
2022-12-04T22:33:14.690Z,10.03
2022-12-04T22:38:06.664Z,10.43
2022-12-04T22:42:58.608Z,10.20
2022-12-04T22:47:50.587Z,10.43
2022-12-04T22:52:42.657Z,10.43
2022-12-04T22:57:34.641Z,10.03
2022-12-04T23:02:26.604Z,11.00
2022-12-04T23:07:18.605Z,10.93
2022-12-04T23:12:10.948Z,11.90
2022-12-04T23:17:03.158Z,12.83
2022-12-04T23:21:57.293Z,12.80
2022-12-04T23:26:49.509Z,12.70
2022-12-04T23:31:41.549Z,12.30
2022-12-04T23:36:33.844Z,12.20
2022-12-04T23:41:29.400Z,11.60
2022-12-04T23:46:24.760Z,12.60
2022-12-04T23:51:19.220Z,13.30
2022-12-04T23:56:17.122Z,12.30
